createdAt,value
2023-01-10T00:00:14.822Z,3.33
2023-01-10T00:03:03.211Z,3.80
2023-01-10T00:05:51.272Z,3.30
2023-01-10T00:08:39.253Z,3.60
2023-01-10T00:11:46.336Z,3.23
2023-01-10T00:14:35.235Z,3.40
2023-01-10T00:17:23.304Z,3.43
2023-01-10T00:20:12.669Z,3.17
2023-01-10T00:23:00.910Z,2.93
2023-01-10T00:25:49.139Z,3.10
2023-01-10T00:28:39.475Z,2.63
2023-01-10T00:31:27.756Z,2.70
2023-01-10T00:34:16.113Z,3.00
2023-01-10T00:37:04.212Z,2.60
2023-01-10T00:39:52.207Z,2.50
2023-01-10T00:42:57.662Z,2.47
2023-01-10T00:45:47.641Z,2.20
2023-01-10T00:48:35.980Z,2.60
2023-01-10T00:51:24.145Z,2.40
2023-01-10T00:54:13.016Z,2.20
2023-01-10T00:57:01.013Z,2.50
2023-01-10T00:59:48.945Z,2.47
2023-01-10T01:02:38.412Z,2.50
2023-01-10T01:05:27.238Z,2.57
2023-01-10T01:08:16.831Z,2.30
2023-01-10T01:11:05.124Z,2.33
2023-01-10T01:13:53.095Z,2.40
2023-01-10T01:16:41.119Z,3.10
2023-01-10T01:19:30.795Z,2.97
2023-01-10T01:22:18.777Z,2.60
2023-01-10T01:25:08.624Z,2.77
2023-01-10T01:27:56.656Z,2.20
2023-01-10T01:30:44.648Z,2.70
2023-01-10T01:33:32.694Z,2.37
2023-01-10T01:36:22.036Z,2.73
2023-01-10T01:39:10.054Z,3.00
2023-01-10T01:41:58.298Z,2.73
2023-01-10T01:44:47.720Z,2.50
2023-01-10T01:47:37.606Z,2.63
2023-01-10T01:50:29.212Z,2.23
2023-01-10T01:53:23.777Z,2.30
2023-01-10T01:56:17.189Z,2.30
2023-01-10T01:59:11.113Z,2.60
2023-01-10T02:02:04.868Z,2.70
2023-01-10T02:04:56.254Z,2.90
2023-01-10T02:07:47.143Z,2.87
2023-01-10T02:10:43.212Z,3.50
2023-01-10T02:13:32.360Z,2.83
2023-01-10T02:16:20.495Z,4.07
2023-01-10T02:19:14.846Z,3.03
2023-01-10T02:22:49.082Z,3.20
2023-01-10T02:26:15.953Z,3.43
2023-01-10T02:29:37.963Z,3.70
2023-01-10T02:32:50.369Z,3.20
2023-01-10T02:36:07.333Z,3.30
2023-01-10T02:39:03.497Z,3.27
2023-01-10T02:41:57.804Z,3.17
2023-01-10T02:44:51.100Z,3.70
2023-01-10T02:47:42.061Z,3.00
2023-01-10T02:50:44.338Z,2.73
2023-01-10T02:53:37.792Z,3.43
2023-01-10T02:56:59.786Z,2.30
2023-01-10T03:00:27.036Z,2.80
2023-01-10T03:03:33.085Z,2.57
2023-01-10T03:26:58.356Z,2.60
2023-01-10T03:29:51.777Z,2.57
2023-01-10T03:32:39.950Z,2.40
2023-01-10T03:35:36.411Z,2.40
2023-01-10T03:38:32.638Z,2.70
2023-01-10T03:41:28.025Z,2.63
2023-01-10T03:44:40.618Z,3.10
2023-01-10T03:47:34.843Z,2.60
2023-01-10T03:50:25.951Z,2.43
2023-01-10T03:53:15.585Z,2.27
2023-01-10T03:56:03.582Z,2.27
2023-01-10T03:58:51.561Z,2.30
2023-01-10T04:01:40.958Z,2.30
2023-01-10T04:04:28.944Z,2.60
2023-01-10T04:07:16.934Z,2.80
2023-01-10T04:10:05.217Z,2.03
2023-01-10T04:12:53.211Z,2.40
2023-01-10T04:15:41.154Z,2.40
2023-01-10T04:18:30.649Z,2.90
2023-01-10T04:21:18.615Z,2.20
2023-01-10T04:24:07.255Z,2.20
2023-01-10T04:26:55.342Z,2.13
2023-01-10T04:29:43.333Z,1.93
2023-01-10T04:32:31.287Z,2.70
2023-01-10T04:35:20.563Z,2.20
2023-01-10T04:38:08.515Z,2.20
2023-01-10T04:40:58.010Z,1.90
2023-01-10T04:43:46.071Z,2.33
2023-01-10T04:46:34.139Z,2.43
2023-01-10T04:49:22.184Z,2.33
2023-01-10T04:52:11.832Z,2.77
2023-01-10T04:54:59.828Z,2.37
2023-01-10T04:57:47.858Z,2.90
2023-01-10T05:00:35.904Z,2.60
2023-01-10T05:03:23.878Z,2.67
2023-01-10T05:06:11.846Z,2.70
2023-01-10T05:09:01.286Z,2.67
2023-01-10T05:11:49.327Z,2.73
2023-01-10T05:14:37.299Z,2.80
2023-01-10T05:17:25.406Z,3.10
2023-01-10T05:20:14.524Z,2.80
2023-01-10T05:23:12.404Z,1.83
2023-01-10T05:26:29.511Z,2.33
2023-01-10T05:29:19.345Z,2.27
2023-01-10T05:32:12.682Z,2.83
2023-01-10T05:35:00.656Z,2.30
2023-01-10T05:37:48.676Z,2.77
2023-01-10T05:40:36.637Z,2.43
2023-01-10T05:43:26.190Z,2.30
2023-01-10T05:46:14.277Z,2.40
2023-01-10T05:49:02.359Z,2.67
2023-01-10T05:51:50.303Z,2.53
2023-01-10T05:54:38.296Z,2.90
2023-01-10T05:57:26.304Z,2.87
2023-01-10T06:00:17.682Z,2.57
2023-01-10T06:03:05.808Z,2.77
2023-01-10T06:05:54.073Z,2.30
2023-01-10T06:08:42.077Z,2.60
2023-01-10T06:11:30.212Z,2.40
2023-01-10T06:14:19.471Z,2.87
2023-01-10T06:17:10.232Z,2.70
2023-01-10T06:19:59.704Z,2.93
2023-01-10T06:22:47.652Z,2.97
2023-01-10T06:25:40.388Z,2.60
2023-01-10T06:28:28.425Z,3.17
2023-01-10T06:31:16.454Z,3.03
2023-01-10T06:34:05.924Z,3.30
2023-01-10T06:36:53.986Z,3.00
2023-01-10T06:39:41.991Z,3.20
2023-01-10T06:42:29.956Z,3.50
2023-01-10T06:45:18.495Z,3.20
2023-01-10T06:48:06.869Z,3.40
2023-01-10T06:50:56.193Z,3.47
2023-01-10T06:53:45.333Z,3.10
2023-01-10T06:56:33.360Z,3.47
2023-01-10T06:59:21.468Z,3.37
2023-01-10T07:02:12.334Z,3.80
2023-01-10T07:05:00.411Z,3.33
2023-01-10T07:07:49.751Z,3.07
2023-01-10T07:10:37.730Z,3.30
2023-01-10T07:13:25.704Z,3.53
2023-01-10T07:16:15.365Z,3.77
2023-01-10T07:19:03.408Z,3.63
2023-01-10T07:21:51.366Z,5.40
2023-01-10T07:24:40.787Z,4.00
2023-01-10T07:27:31.362Z,3.43
2023-01-10T07:30:19.551Z,3.60
2023-01-10T07:33:07.667Z,3.27
2023-01-10T07:35:55.652Z,3.77
2023-01-10T07:38:43.661Z,3.60
2023-01-10T07:41:33.047Z,3.77
2023-01-10T07:44:21.067Z,3.70
2023-01-10T07:47:09.006Z,4.10
2023-01-10T07:49:57.045Z,3.63
2023-01-10T07:52:45.087Z,4.50
2023-01-10T07:55:34.746Z,3.80
2023-01-10T07:58:24.071Z,4.63
2023-01-10T08:01:12.084Z,4.07
2023-01-10T08:04:00.069Z,4.53
2023-01-10T08:06:48.242Z,4.60
2023-01-10T08:09:36.195Z,4.67
2023-01-10T08:12:25.152Z,5.17
2023-01-10T08:15:14.667Z,5.27
2023-01-10T08:18:04.821Z,5.63
2023-01-10T08:20:54.143Z,5.50
2023-01-10T08:23:42.144Z,5.30
2023-01-10T08:26:30.184Z,5.80
2023-01-10T08:29:18.187Z,5.90
2023-01-10T08:32:07.580Z,5.47
2023-01-10T08:34:55.562Z,5.13
2023-01-10T08:37:43.533Z,6.63
2023-01-10T08:40:31.674Z,6.20
2023-01-10T08:43:19.638Z,5.97
2023-01-10T08:46:07.889Z,5.93
2023-01-10T08:48:57.522Z,6.60
2023-01-10T08:51:45.700Z,6.27
2023-01-10T08:54:34.113Z,6.60
2023-01-10T08:57:22.117Z,6.30
2023-01-10T09:00:12.181Z,6.50
2023-01-10T09:03:00.240Z,5.83
2023-01-10T09:05:49.562Z,6.20
2023-01-10T09:08:38.130Z,6.60
2023-01-10T09:11:26.186Z,7.33
2023-01-10T09:14:14.445Z,7.20
2023-01-10T09:17:02.462Z,7.27
2023-01-10T09:19:50.623Z,7.07
2023-01-10T09:22:39.996Z,6.60
2023-01-10T09:25:28.039Z,5.90
2023-01-10T09:28:16.928Z,6.33
2023-01-10T09:31:05.290Z,6.13
2023-01-10T09:33:53.290Z,4.97
2023-01-10T09:36:41.301Z,5.17
2023-01-10T09:39:32.325Z,4.20
2023-01-10T09:42:31.983Z,5.60
2023-01-10T09:45:25.947Z,5.47
2023-01-10T09:48:21.485Z,4.90
2023-01-10T09:51:23.780Z,4.43
2023-01-10T09:54:16.570Z,4.07
2023-01-10T09:57:06.170Z,4.03
2023-01-10T09:59:55.031Z,3.90
2023-01-10T10:02:46.611Z,3.60
2023-01-10T10:05:34.602Z,3.47
2023-01-10T10:08:22.681Z,3.17
2023-01-10T10:11:44.040Z,3.40
2023-01-10T10:14:48.140Z,3.47
2023-01-10T10:17:47.054Z,2.90
2023-01-10T10:20:51.450Z,3.10
2023-01-10T10:23:56.763Z,2.93
2023-01-10T10:26:53.499Z,3.30
2023-01-10T10:30:04.612Z,2.80
2023-01-10T10:33:06.806Z,2.60
2023-01-10T10:36:00.248Z,2.90
2023-01-10T10:38:50.148Z,2.50
2023-01-10T10:41:41.969Z,2.97
2023-01-10T10:44:39.947Z,2.97
2023-01-10T10:47:34.164Z,2.80
2023-01-10T10:50:29.788Z,3.17
2023-01-10T10:53:19.196Z,3.27
2023-01-10T10:56:11.567Z,4.00
2023-01-10T10:59:01.209Z,3.00
2023-01-10T11:01:51.970Z,3.67
2023-01-10T11:04:41.479Z,2.87
2023-01-10T11:07:33.334Z,3.53
2023-01-10T11:10:38.318Z,3.40
2023-01-10T11:13:40.371Z,3.50
2023-01-10T11:16:31.582Z,3.40
2023-01-10T11:19:22.363Z,3.60
2023-01-10T11:22:17.803Z,3.07
2023-01-10T11:25:06.832Z,3.37
2023-01-10T11:27:56.654Z,3.43
2023-01-10T11:30:49.018Z,3.10
2023-01-10T11:33:39.824Z,3.30
2023-01-10T11:36:27.857Z,3.70
2023-01-10T11:39:17.808Z,4.17
2023-01-10T11:42:29.627Z,3.37
2023-01-10T11:45:27.439Z,3.00
2023-01-10T11:48:34.263Z,3.87
2023-01-10T11:51:34.697Z,3.50
2023-01-10T11:54:26.456Z,3.27
2023-01-10T11:57:19.937Z,3.30
2023-01-10T12:00:11.315Z,3.27
2023-01-10T12:02:59.685Z,3.57
2023-01-10T12:05:53.436Z,3.10
2023-01-10T12:08:42.485Z,3.00
2023-01-10T12:11:35.840Z,2.67
2023-01-10T12:14:23.822Z,2.70
2023-01-10T12:17:24.268Z,2.47
2023-01-10T12:20:15.994Z,3.13
2023-01-10T12:23:09.027Z,2.67
2023-01-10T12:26:10.989Z,2.60
2023-01-10T12:29:06.741Z,3.13
2023-01-10T12:31:58.750Z,2.80
2023-01-10T12:34:51.853Z,2.97
2023-01-10T12:37:47.237Z,3.37
2023-01-10T12:40:44.256Z,3.43
2023-01-10T12:43:54.389Z,3.00
2023-01-10T12:47:05.784Z,3.53
2023-01-10T12:50:00.346Z,3.43
2023-01-10T12:52:54.866Z,2.97
2023-01-10T12:55:45.153Z,3.13
2023-01-10T12:58:43.024Z,2.83
2023-01-10T13:01:32.997Z,2.63
2023-01-10T13:04:25.442Z,3.03
2023-01-10T13:07:14.341Z,2.90
2023-01-10T13:10:04.413Z,2.63
2023-01-10T13:12:57.892Z,2.10
2023-01-10T13:15:52.195Z,2.97
2023-01-10T13:19:00.011Z,2.53
2023-01-10T13:21:49.398Z,3.30
2023-01-10T13:24:37.451Z,3.30
2023-01-10T13:27:29.412Z,3.20
2023-01-10T13:30:29.205Z,2.50
2023-01-10T13:33:22.717Z,2.93
2023-01-10T13:36:13.403Z,3.50
2023-01-10T13:39:05.235Z,3.17
2023-01-10T13:42:47.701Z,3.10
2023-01-10T13:45:38.514Z,3.33
2023-01-10T13:48:28.509Z,2.60
2023-01-10T13:51:18.860Z,3.03
2023-01-10T13:54:26.818Z,3.10
2023-01-10T13:57:48.443Z,2.80
2023-01-10T14:01:18.289Z,2.90
2023-01-10T14:04:07.753Z,2.80
2023-01-10T14:06:58.195Z,2.53
2023-01-10T14:09:49.705Z,2.23
2023-01-10T14:12:48.565Z,2.87
2023-01-10T14:15:40.374Z,2.90
2023-01-10T14:18:33.956Z,2.50
2023-01-10T14:21:26.266Z,2.90
2023-01-10T14:24:26.713Z,2.80
2023-01-10T14:27:17.568Z,3.03
2023-01-10T14:30:08.597Z,3.00
2023-01-10T14:32:58.322Z,2.80
2023-01-10T14:35:48.990Z,2.73
2023-01-10T14:38:39.551Z,2.70
2023-01-10T14:41:35.638Z,2.00
2023-01-10T14:44:31.905Z,2.80
2023-01-10T14:47:30.703Z,2.73
2023-01-10T14:50:28.724Z,2.50
2023-01-10T14:56:20.718Z,2.73
2023-01-10T14:59:25.617Z,2.60
2023-01-10T15:02:22.881Z,2.03
2023-01-10T15:05:19.145Z,2.33
2023-01-10T15:08:21.221Z,2.10
2023-01-10T15:11:12.543Z,2.67
2023-01-10T15:14:10.295Z,3.60
2023-01-10T15:17:02.331Z,2.10
2023-01-10T15:19:53.421Z,2.33
2023-01-10T15:22:43.335Z,2.97
2023-01-10T15:25:37.963Z,2.50
2023-01-10T15:28:28.143Z,2.33
2023-01-10T15:31:18.022Z,2.30
2023-01-10T15:34:10.049Z,2.63
2023-01-10T15:37:00.890Z,2.67
2023-01-10T15:39:49.272Z,2.40
2023-01-10T15:42:38.013Z,2.30
2023-01-10T15:45:30.937Z,2.10
2023-01-10T15:48:29.876Z,2.93
2023-01-10T15:51:29.019Z,2.00
2023-01-10T15:54:30.931Z,2.47
2023-01-10T15:57:27.444Z,2.67
2023-01-10T16:00:18.994Z,2.92
2023-01-10T16:03:22.576Z,3.37
2023-01-10T16:06:23.078Z,3.07
2023-01-10T16:09:20.780Z,2.20
2023-01-10T16:12:42.983Z,2.37
2023-01-10T16:15:32.952Z,2.90
2023-01-10T16:18:21.076Z,2.87
2023-01-10T16:21:11.408Z,2.67
2023-01-10T16:24:00.894Z,2.20
2023-01-10T16:26:50.094Z,5.83
2023-01-10T16:29:38.148Z,2.13
2023-01-10T16:32:27.016Z,2.43
2023-01-10T16:35:18.514Z,2.63
2023-01-10T16:38:08.203Z,2.90
2023-01-10T16:41:00.571Z,2.60
2023-01-10T16:43:49.217Z,2.87
2023-01-10T16:46:37.632Z,2.80
2023-01-10T16:49:26.317Z,2.87
2023-01-10T16:52:14.937Z,2.53
2023-01-10T16:55:03.220Z,3.43
2023-01-10T16:57:52.659Z,3.13
2023-01-10T17:00:42.196Z,3.03
2023-01-10T17:03:33.838Z,3.00
2023-01-10T17:06:24.140Z,2.90
2023-01-10T17:09:22.525Z,2.77
2023-01-10T17:12:19.300Z,2.60
2023-01-10T17:15:15.176Z,2.70
2023-01-10T17:18:03.309Z,2.90
2023-01-10T17:20:54.094Z,2.77
2023-01-10T17:23:44.744Z,2.80
2023-01-10T17:26:35.070Z,2.30
2023-01-10T17:29:23.498Z,2.93
2023-01-10T17:32:12.910Z,3.07
2023-01-10T17:35:00.992Z,3.07
2023-01-10T17:37:50.397Z,2.67
2023-01-10T17:40:40.852Z,3.00
2023-01-10T17:43:29.671Z,2.90
2023-01-10T17:46:18.057Z,2.63
2023-01-10T17:49:07.365Z,2.90
2023-01-10T17:51:55.394Z,3.67
2023-01-10T17:54:44.978Z,3.30
2023-01-10T17:57:33.633Z,3.10
2023-01-10T18:00:21.678Z,3.40
2023-01-10T18:03:10.180Z,3.63
2023-01-10T18:06:00.119Z,3.07
2023-01-10T18:08:48.201Z,4.00
2023-01-10T18:11:36.162Z,3.80
2023-01-10T18:14:39.240Z,3.80
2023-01-10T18:17:27.285Z,3.70
2023-01-10T18:20:15.493Z,3.63
2023-01-10T18:23:23.085Z,3.30
2023-01-10T18:26:14.145Z,3.70
2023-01-10T18:29:03.418Z,4.60
2023-01-10T18:31:53.150Z,3.40
2023-01-10T18:34:41.270Z,3.67
2023-01-10T18:37:29.354Z,4.07
2023-01-10T18:40:19.023Z,3.70
2023-01-10T18:43:07.051Z,3.20
2023-01-10T18:46:01.916Z,3.03
2023-01-10T18:48:53.212Z,3.23
2023-01-10T18:51:41.204Z,3.77
2023-01-10T18:54:30.232Z,4.10
2023-01-10T18:57:19.837Z,3.57
2023-01-10T19:00:09.552Z,3.63
2023-01-10T19:02:59.541Z,3.90
2023-01-10T19:05:48.634Z,3.03
2023-01-10T19:08:38.193Z,3.80
2023-01-10T19:11:26.195Z,3.30
2023-01-10T19:14:15.462Z,3.03
2023-01-10T19:17:03.801Z,3.30
2023-01-10T19:19:51.893Z,3.57
2023-01-10T19:22:39.902Z,3.10
2023-01-10T19:25:28.412Z,9.80
2023-01-10T19:28:16.376Z,3.33
2023-01-10T19:31:06.039Z,3.73
2023-01-10T19:33:56.203Z,3.13
2023-01-10T19:36:45.537Z,3.37
2023-01-10T19:39:34.277Z,2.90
2023-01-10T19:42:23.899Z,2.90
2023-01-10T19:45:13.662Z,3.40
2023-01-10T19:48:02.952Z,2.80
2023-01-10T19:50:51.015Z,3.00
2023-01-10T19:53:43.162Z,2.60
2023-01-10T19:56:31.665Z,2.73
2023-01-10T19:59:20.070Z,2.43
2023-01-10T20:02:13.547Z,3.40
2023-01-10T20:05:03.651Z,2.77
2023-01-10T20:07:52.562Z,2.87
2023-01-10T20:10:40.900Z,3.23
2023-01-10T20:13:29.151Z,2.40
2023-01-10T20:16:18.951Z,2.60
2023-01-10T20:19:09.759Z,2.67
2023-01-10T20:21:59.191Z,2.23
2023-01-10T20:24:47.797Z,2.93
2023-01-10T20:27:36.283Z,2.63
2023-01-10T20:30:26.236Z,2.60
2023-01-10T20:33:14.471Z,2.57
2023-01-10T20:36:04.680Z,2.27
2023-01-10T20:38:54.454Z,2.47
2023-01-10T20:41:42.450Z,2.50
2023-01-10T20:44:31.191Z,2.17
2023-01-10T20:47:19.207Z,2.00
2023-01-10T20:50:08.508Z,1.87
2023-01-10T20:52:56.531Z,1.97
2023-01-10T20:55:56.271Z,2.00
2023-01-10T20:58:47.735Z,1.80
2023-01-10T21:01:36.202Z,2.63
2023-01-10T21:04:24.288Z,2.17
2023-01-10T21:07:12.765Z,2.10
2023-01-10T21:10:03.415Z,2.10
2023-01-10T21:12:52.724Z,2.20
2023-01-10T21:15:41.522Z,1.90
2023-01-10T21:18:33.455Z,1.87
2023-01-10T21:21:23.578Z,1.73
2023-01-10T21:24:11.927Z,1.70
2023-01-10T21:26:59.927Z,2.17
2023-01-10T21:29:49.264Z,1.90
2023-01-10T21:32:37.267Z,1.97
2023-01-10T21:35:25.216Z,1.63
2023-01-10T21:38:13.182Z,1.90
2023-01-10T21:41:08.118Z,1.80
2023-01-10T21:43:56.584Z,1.93
2023-01-10T21:46:48.763Z,1.83
2023-01-10T21:49:36.872Z,1.70
2023-01-10T21:52:24.972Z,1.90
2023-01-10T21:55:15.754Z,2.03
2023-01-10T21:58:03.761Z,1.43
2023-01-10T22:00:56.282Z,1.80
2023-01-10T22:03:47.201Z,2.03
2023-01-10T22:06:35.292Z,1.97
2023-01-10T22:09:25.065Z,1.60
2023-01-10T22:12:13.115Z,2.13
2023-01-10T22:15:01.223Z,1.97
2023-01-10T22:17:49.271Z,1.70
2023-01-10T22:20:43.923Z,2.10
2023-01-10T22:23:32.112Z,1.97
2023-01-10T22:26:20.155Z,1.90
2023-01-10T22:29:09.476Z,1.80
2023-01-10T22:31:57.880Z,1.77
2023-01-10T22:34:46.001Z,1.40
2023-01-10T22:37:35.464Z,1.60
2023-01-10T22:40:23.897Z,1.60
2023-01-10T22:43:12.670Z,1.73
2023-01-10T22:46:00.761Z,1.60
2023-01-10T22:48:49.161Z,1.40
2023-01-10T22:51:37.655Z,1.30
2023-01-10T22:54:27.087Z,1.17
2023-01-10T22:57:15.159Z,1.60
2023-01-10T23:00:03.312Z,1.40
2023-01-10T23:02:51.487Z,1.57
2023-01-10T23:05:39.514Z,1.23
2023-01-10T23:08:28.560Z,1.50
2023-01-10T23:11:20.356Z,1.67
2023-01-10T23:14:08.503Z,1.60
2023-01-10T23:16:56.657Z,1.93
2023-01-10T23:19:44.989Z,2.00
2023-01-10T23:22:33.017Z,2.10
2023-01-10T23:25:21.503Z,2.20
2023-01-10T23:28:10.991Z,3.07
2023-01-10T23:30:59.276Z,2.17
2023-01-10T23:33:47.820Z,2.90
2023-01-10T23:36:35.860Z,2.00
2023-01-10T23:39:23.914Z,2.60
2023-01-10T23:42:11.879Z,2.03
2023-01-10T23:45:01.202Z,2.07
2023-01-10T23:47:49.171Z,2.40
2023-01-10T23:50:37.560Z,2.70
2023-01-10T23:53:25.809Z,2.70
2023-01-10T23:56:15.652Z,2.50
2023-01-10T23:59:04.297Z,2.40
